Time,TemperatureF,DewpointF,PressureIn,WindDirection,WindDirectionDegrees,WindSpeedMPH,WindSpeedGustMPH,Humidity,HourlyPrecipIn,Conditions,Clouds,dailyrainin,SoftwareType,DateUTC
2014-01-30 00:14:00,17.6,3.8,30.03,NW,315,1.1,-999.0,54,-99.99,,,0.00,Acu-Link.com,2014-01-30 05:14:00,
2014-01-30 00:29:00,16.0,2.7,30.04,NNW,337,4.2,-999.0,55,-99.99,,,0.00,Acu-Link.com,2014-01-30 05:29:00,
2014-01-30 00:44:00,16.9,2.4,30.05,NE,45,2.7,-999.0,52,-99.99,,,0.00,Acu-Link.com,2014-01-30 05:44:00,
2014-01-30 00:59:00,16.3,1.4,30.06,WNW,292,2.7,-999.0,51,-99.99,,,0.00,Acu-Link.com,2014-01-30 05:59:00,
2014-01-30 01:15:00,17.8,3.6,30.06,NE,45,3.2,-999.0,53,-99.99,,,0.00,Acu-Link.com,2014-01-30 06:15:00,
2014-01-30 01:30:00,19.2,4.9,30.08,NE,45,0.0,-999.0,53,-99.99,,,0.00,Acu-Link.com,2014-01-30 06:30:00,
2014-01-30 01:45:00,16.7,2.6,30.08,ENE,67,0.0,-999.0,53,-99.99,,,0.00,Acu-Link.com,2014-01-30 06:45:00,
2014-01-30 02:00:00,15.8,1.7,30.10,ENE,67,0.0,-999.0,53,-99.99,,,0.00,Acu-Link.com,2014-01-30 07:00:00,
2014-01-30 02:15:00,19.0,6.7,30.11,ENE,67,0.0,-999.0,58,-99.99,,,0.00,Acu-Link.com,2014-01-30 07:15:00,
2014-01-30 02:31:00,22.8,9.1,30.11,SSE,157,0.0,-999.0,55,-99.99,,,0.00,Acu-Link.com,2014-01-30 07:31:00,
2014-01-30 02:46:00,15.6,4.6,30.10,East,90,2.2,-999.0,61,-99.99,,,0.00,Acu-Link.com,2014-01-30 07:46:00,
2014-01-30 03:01:00,15.4,3.7,30.11,NW,315,0.0,-999.0,59,-99.99,,,0.00,Acu-Link.com,2014-01-30 08:01:00,
2014-01-30 03:16:00,17.2,6.1,30.11,SW,225,0.0,-999.0,61,-99.99,,,0.00,Acu-Link.com,2014-01-30 08:16:00,
2014-01-30 03:31:00,18.0,4.6,30.11,East,90,0.0,-999.0,55,-99.99,,,0.00,Acu-Link.com,2014-01-30 08:31:00,
2014-01-30 03:47:00,22.1,8.8,30.11,NW,315,0.0,-999.0,56,-99.99,,,0.00,Acu-Link.com,2014-01-30 08:47:00,
2014-01-30 04:02:00,22.3,8.6,30.12,WNW,292,0.0,-999.0,55,-99.99,,,0.00,Acu-Link.com,2014-01-30 09:02:00,
2014-01-30 04:17:00,21.4,9.7,30.12,SW,225,0.0,-999.0,60,-99.99,,,0.00,Acu-Link.com,2014-01-30 09:17:00,
2014-01-30 04:33:00,13.5,0.8,30.12,WNW,292,0.0,-999.0,56,-99.99,,,0.00,Acu-Link.com,2014-01-30 09:33:00,
2014-01-30 04:48:00,17.1,4.1,30.13,NNW,337,1.1,-999.0,56,-99.99,,,0.00,Acu-Link.com,2014-01-30 09:48:00,
2014-01-30 05:03:00,20.1,7.7,30.15,SW,225,0.0,-999.0,58,-99.99,,,0.00,Acu-Link.com,2014-01-30 10:03:00,
2014-01-30 05:18:00,17.1,4.9,30.15,NW,315,1.1,-999.0,58,-99.99,,,0.00,Acu-Link.com,2014-01-30 10:18:00,
2014-01-30 05:33:00,16.3,5.2,30.16,NW,315,0.0,-999.0,61,-99.99,,,0.00,Acu-Link.com,2014-01-30 10:33:00,
2014-01-30 05:49:00,17.4,6.6,30.17,West,270,0.0,-999.0,62,-99.99,,,0.00,Acu-Link.com,2014-01-30 10:49:00,
2014-01-30 06:04:00,19.4,7.4,30.18,ENE,67,0.0,-999.0,59,-99.99,,,0.00,Acu-Link.com,2014-01-30 11:04:00,
2014-01-30 06:19:00,19.2,7.6,30.18,NE,45,0.0,-999.0,60,-99.99,,,0.00,Acu-Link.com,2014-01-30 11:19:00,
2014-01-30 06:34:00,15.4,4.7,30.19,West,270,1.1,-999.0,62,-99.99,,,0.00,Acu-Link.com,2014-01-30 11:34:00,
2014-01-30 06:49:00,18.7,8.6,30.20,West,270,0.0,-999.0,64,-99.99,,,0.00,Acu-Link.com,2014-01-30 11:49:00,
2014-01-30 07:05:00,19.2,7.6,30.21,WNW,292,0.0,-999.0,60,-99.99,,,0.00,Acu-Link.com,2014-01-30 12:05:00,
2014-01-30 07:20:00,19.6,6.9,30.21,WSW,247,0.0,-999.0,57,-99.99,,,0.00,Acu-Link.com,2014-01-30 12:20:00,
2014-01-30 07:35:00,16.9,6.2,30.21,ENE,67,0.0,-999.0,62,-99.99,,,0.00,Acu-Link.com,2014-01-30 12:35:00,
2014-01-30 07:50:00,15.3,3.2,30.22,NNE,22,1.7,-999.0,58,-99.99,,,0.00,Acu-Link.com,2014-01-30 12:50:00,
2014-01-30 08:05:00,15.1,2.6,30.22,NNW,337,2.2,-999.0,57,-99.99,,,0.00,Acu-Link.com,2014-01-30 13:05:00,
2014-01-30 08:21:00,18.1,3.9,30.22,NE,45,0.0,-999.0,53,-99.99,,,0.00,Acu-Link.com,2014-01-30 13:21:00,
2014-01-30 08:36:00,18.7,3.6,30.22,NNW,337,3.7,-999.0,51,-99.99,,,0.00,Acu-Link.com,2014-01-30 13:36:00,
2014-01-30 08:51:00,19.0,3.9,30.23,NNW,337,3.2,-999.0,51,-99.99,,,0.00,Acu-Link.com,2014-01-30 13:51:00,
2014-01-30 09:06:00,19.2,3.2,30.23,SW,225,3.2,-999.0,49,-99.99,,,0.00,Acu-Link.com,2014-01-30 14:06:00,
2014-01-30 09:22:00,20.3,3.8,30.23,East,90,6.3,-999.0,48,-99.99,,,0.00,Acu-Link.com,2014-01-30 14:22:00,
2014-01-30 09:37:00,21.0,4.0,30.23,NW,315,5.8,-999.0,47,-99.99,,,0.00,Acu-Link.com,2014-01-30 14:37:00,
2014-01-30 09:52:00,21.7,4.6,30.23,NW,315,3.7,-999.0,47,-99.99,,,0.00,Acu-Link.com,2014-01-30 14:52:00,
2014-01-30 10:07:00,22.1,4.0,30.24,ESE,112,3.2,-999.0,45,-99.99,,,0.00,Acu-Link.com,2014-01-30 15:07:00,
2014-01-30 10:22:00,23.0,4.4,30.24,NNE,22,0.0,-999.0,44,-99.99,,,0.00,Acu-Link.com,2014-01-30 15:22:00,
2014-01-30 10:38:00,24.4,5.7,30.25,WNW,292,2.2,-999.0,44,-99.99,,,0.00,Acu-Link.com,2014-01-30 15:38:00,
2014-01-30 10:53:00,24.1,4.9,30.25,WSW,247,2.2,-999.0,43,-99.99,,,0.00,Acu-Link.com,2014-01-30 15:53:00,
2014-01-30 11:08:00,27.5,9.0,30.24,ENE,67,2.2,-999.0,45,-99.99,,,0.00,Acu-Link.com,2014-01-30 16:08:00,
2014-01-30 11:23:00,28.2,9.6,30.24,West,270,3.7,-999.0,45,-99.99,,,0.00,Acu-Link.com,2014-01-30 16:23:00,
2014-01-30 11:38:00,28.9,9.8,30.23,SSW,202,3.2,-999.0,44,-99.99,,,0.00,Acu-Link.com,2014-01-30 16:38:00,
2014-01-30 11:54:00,28.6,11.0,30.22,WSW,247,4.7,-999.0,47,-99.99,,,0.00,Acu-Link.com,2014-01-30 16:54:00,
2014-01-30 12:09:00,28.9,11.7,30.22,SE,135,4.2,-999.0,48,-99.99,,,0.01,Acu-Link.com,2014-01-30 17:09:00,
2014-01-30 12:24:00,28.2,10.6,30.21,SSE,157,2.2,-999.0,47,-99.99,,,0.01,Acu-Link.com,2014-01-30 17:24:00,
2014-01-30 12:39:00,28.9,11.7,30.21,WNW,292,2.2,-999.0,48,-99.99,,,0.01,Acu-Link.com,2014-01-30 17:39:00,
2014-01-30 12:54:00,28.8,10.7,30.19,WNW,292,2.2,-999.0,46,-99.99,,,0.01,Acu-Link.com,2014-01-30 17:54:00,
2014-01-30 13:10:00,29.1,9.9,30.19,NW,315,3.7,-999.0,44,-99.99,,,0.01,Acu-Link.com,2014-01-30 18:10:00,
2014-01-30 13:25:00,30.0,10.8,30.18,ESE,112,1.7,-999.0,44,-99.99,,,0.01,Acu-Link.com,2014-01-30 18:25:00,
2014-01-30 13:40:00,30.2,12.4,30.18,WNW,292,2.7,-999.0,47,-99.99,,,0.02,Acu-Link.com,2014-01-30 18:40:00,
2014-01-30 13:55:00,30.4,13.6,30.18,SW,225,4.2,-999.0,49,-99.99,,,0.02,Acu-Link.com,2014-01-30 18:55:00,
2014-01-30 14:11:00,29.1,11.9,30.18,West,270,4.7,-999.0,48,-99.99,,,0.02,Acu-Link.com,2014-01-30 19:11:00,
2014-01-30 14:26:00,29.5,12.3,30.18,West,270,5.8,-999.0,48,-99.99,,,0.02,Acu-Link.com,2014-01-30 19:26:00,
2014-01-30 14:41:00,30.2,13.4,30.18,South,180,1.1,-999.0,49,-99.99,,,0.02,Acu-Link.com,2014-01-30 19:41:00,
2014-01-30 14:56:00,30.4,13.6,30.17,SW,225,4.2,-999.0,49,-99.99,,,0.02,Acu-Link.com,2014-01-30 19:56:00,
2014-01-30 15:11:00,30.6,14.2,30.18,ENE,67,3.7,-999.0,50,-99.99,,,0.02,Acu-Link.com,2014-01-30 20:11:00,
2014-01-30 15:27:00,28.6,12.8,30.17,South,180,3.7,-999.0,51,-99.99,,,0.02,Acu-Link.com,2014-01-30 20:27:00,
2014-01-30 15:42:00,28.6,13.2,30.16,WNW,292,2.7,-999.0,52,-99.99,,,0.02,Acu-Link.com,2014-01-30 20:42:00,
2014-01-30 15:57:00,27.9,13.4,30.16,ESE,112,1.7,-999.0,54,-99.99,,,0.02,Acu-Link.com,2014-01-30 20:57:00,
2014-01-30 16:12:00,28.0,14.8,30.16,NNE,22,3.2,-999.0,57,-99.99,,,0.02,Acu-Link.com,2014-01-30 21:12:00,
2014-01-30 16:27:00,26.4,13.7,30.15,West,270,2.7,-999.0,58,-99.99,,,0.02,Acu-Link.com,2014-01-30 21:27:00,
2014-01-30 16:43:00,27.1,14.3,30.15,NNW,337,1.7,-999.0,58,-99.99,,,0.02,Acu-Link.com,2014-01-30 21:43:00,
2014-01-30 16:58:00,27.9,16.6,30.15,East,90,0.0,-999.0,62,-99.99,,,0.02,Acu-Link.com,2014-01-30 21:58:00,
2014-01-30 17:13:00,27.0,14.6,30.15,NNE,22,1.7,-999.0,59,-99.99,,,0.02,Acu-Link.com,2014-01-30 22:13:00,
2014-01-30 17:29:00,26.6,16.4,30.15,North,0,0.0,-999.0,65,-99.99,,,0.02,Acu-Link.com,2014-01-30 22:29:00,
2014-01-30 17:44:00,25.3,15.9,30.15,SE,135,0.0,-999.0,67,-99.99,,,0.02,Acu-Link.com,2014-01-30 22:44:00,
2014-01-30 17:59:00,25.7,15.9,30.15,West,270,0.0,-999.0,66,-99.99,,,0.02,Acu-Link.com,2014-01-30 22:59:00,
2014-01-30 18:14:00,26.4,17.6,30.14,ESE,112,0.0,-999.0,69,-99.99,,,0.02,Acu-Link.com,2014-01-30 23:14:00,
2014-01-30 18:29:00,28.6,18.7,30.14,NE,45,0.0,-999.0,66,-99.99,,,0.02,Acu-Link.com,2014-01-30 23:29:00,
2014-01-30 18:45:00,26.2,17.1,30.13,WSW,247,1.7,-999.0,68,-99.99,,,0.02,Acu-Link.com,2014-01-30 23:45:00,
2014-01-30 19:00:00,28.2,18.7,30.13,SSW,202,0.0,-999.0,67,-99.99,,,0.02,Acu-Link.com,2014-01-31 00:00:00,
2014-01-30 19:15:00,28.4,19.2,30.12,SW,225,4.7,-999.0,68,-99.99,,,0.02,Acu-Link.com,2014-01-31 00:15:00,
2014-01-30 19:30:00,29.3,19.7,30.11,West,270,0.0,-999.0,67,-99.99,,,0.02,Acu-Link.com,2014-01-31 00:30:00,
2014-01-30 19:45:00,28.8,19.6,30.11,South,180,0.0,-999.0,68,-99.99,,,0.02,Acu-Link.com,2014-01-31 00:45:00,
2014-01-30 20:01:00,28.0,20.5,30.10,ENE,67,0.0,-999.0,73,-99.99,,,0.02,Acu-Link.com,2014-01-31 01:01:00,
2014-01-30 20:16:00,29.1,20.6,30.07,SE,135,0.0,-999.0,70,-99.99,,,0.02,Acu-Link.com,2014-01-31 01:16:00,
2014-01-30 20:31:00,29.7,21.1,30.07,SSE,157,0.0,-999.0,70,-99.99,,,0.02,Acu-Link.com,2014-01-31 01:31:00,
2014-01-30 20:46:00,26.1,18.3,30.06,NE,45,2.2,-999.0,72,-99.99,,,0.02,Acu-Link.com,2014-01-31 01:46:00,
2014-01-30 21:02:00,26.1,19.3,30.05,WSW,247,0.0,-999.0,75,-99.99,,,0.02,Acu-Link.com,2014-01-31 02:02:00,
2014-01-30 21:17:00,26.2,20.6,30.04,West,270,1.1,-999.0,79,-99.99,,,0.02,Acu-Link.com,2014-01-31 02:17:00,
2014-01-30 21:32:00,26.8,20.6,30.04,SW,225,0.0,-999.0,77,-99.99,,,0.02,Acu-Link.com,2014-01-31 02:32:00,
2014-01-30 21:47:00,28.6,21.1,30.04,West,270,1.7,-999.0,73,-99.99,,,0.02,Acu-Link.com,2014-01-31 02:47:00,
2014-01-30 22:02:00,28.6,21.7,30.05,WNW,292,0.0,-999.0,75,-99.99,,,0.02,Acu-Link.com,2014-01-31 03:02:00,
2014-01-30 22:18:00,28.6,21.4,30.05,SSW,202,1.7,-999.0,74,-99.99,,,0.02,Acu-Link.com,2014-01-31 03:18:00,
2014-01-30 22:33:00,27.5,21.6,30.05,NNE,22,0.0,-999.0,78,-99.99,,,0.02,Acu-Link.com,2014-01-31 03:33:00,
2014-01-30 22:48:00,30.6,22.7,30.04,NNW,337,0.0,-999.0,72,-99.99,,,0.02,Acu-Link.com,2014-01-31 03:48:00,
2014-01-30 23:03:00,30.7,22.4,30.04,ESE,112,0.0,-999.0,71,-99.99,,,0.02,Acu-Link.com,2014-01-31 04:03:00,
2014-01-30 23:18:00,29.5,22.3,30.02,SW,225,0.0,-999.0,74,-99.99,,,0.02,Acu-Link.com,2014-01-31 04:18:00,
2014-01-30 23:34:00,29.5,22.9,30.02,West,270,0.0,-999.0,76,-99.99,,,0.02,Acu-Link.com,2014-01-31 04:34:00,
2014-01-30 23:49:00,29.1,22.5,30.02,WSW,247,1.7,-999.0,76,-99.99,,,0.02,Acu-Link.com,2014-01-31 04:49:00,